Time;durP1;ratioP1;P1;durP2;ratioP2;P2;SDS_P1;SDS_P2;PMS_P1;PMS_P2;Temp;Humidity;BMP_temperature;BMP_pressure;BME280_temperature;BME280_humidity;BME280_pressure;Samples;Min_cycle;Max_cycle;Signal;HPM_P1;HPM_P2
2023/04/25 00:01:41;;;;;;;6.43;3.73;;;7.40;99.90;;;;;;5051750;28;20223;-79
2023/04/25 00:04:08;;;;;;;8.37;4.07;;;7.40;99.90;;;;;;5043524;28;20246;-79
2023/04/25 00:06:36;;;;;;;5.37;3.63;;;7.40;99.90;;;;;;5048832;28;20238;-79
2023/04/25 00:09:03;;;;;;;8.23;3.50;;;7.30;99.90;;;;;;5044242;28;20222;-79
2023/04/25 00:11:30;;;;;;;4.27;3.40;;;7.30;99.90;;;;;;5048175;28;20314;-79
2023/04/25 00:13:59;;;;;;;4.70;3.50;;;7.30;99.90;;;;;;5042673;28;20223;-79
2023/04/25 00:16:26;;;;;;;7.33;3.67;;;7.30;99.90;;;;;;5046145;28;20223;-79
2023/04/25 00:18:53;;;;;;;7.40;3.80;;;7.30;99.90;;;;;;5043937;28;20218;-80
2023/04/25 00:21:20;;;;;;;7.13;4.33;;;7.20;99.90;;;;;;5043085;28;20709;-80
2023/04/25 00:23:47;;;;;;;7.67;4.00;;;7.20;99.90;;;;;;5038103;28;20246;-80
2023/04/25 00:26:14;;;;;;;8.77;4.17;;;7.20;99.90;;;;;;5033556;28;20220;-80
2023/04/25 00:28:41;;;;;;;8.53;4.27;;;7.20;99.90;;;;;;5046867;28;20591;-80
2023/04/25 00:31:09;;;;;;;9.73;4.10;;;7.20;99.90;;;;;;5041251;28;20581;-81
2023/04/25 00:33:36;;;;;;;10.90;4.20;;;7.20;99.90;;;;;;5044444;28;20316;-80
2023/04/25 00:36:03;;;;;;;10.17;4.17;;;7.20;99.90;;;;;;5039306;28;20272;-80
2023/04/25 00:38:30;;;;;;;11.77;4.87;;;7.10;99.90;;;;;;5039195;28;20305;-80
2023/04/25 00:40:57;;;;;;;13.73;4.77;;;7.10;99.90;;;;;;5047615;28;20864;-80
2023/04/25 00:43:26;;;;;;;15.03;4.00;;;7.10;99.90;;;;;;5042559;28;21055;-80
2023/04/25 00:45:53;;;;;;;14.20;4.80;;;7.10;99.90;;;;;;5038173;28;20656;-79
2023/04/25 00:48:23;;;;;;;12.87;4.17;;;7.10;99.90;;;;;;5043637;28;20231;-80
2023/04/25 00:50:53;;;;;;;11.50;3.50;;;7.10;99.90;;;;;;5038589;28;20225;-80
2023/04/25 00:53:21;;;;;;;9.23;3.67;;;7.00;99.90;;;;;;5038589;28;20230;-80
2023/04/25 00:55:50;;;;;;;14.43;4.17;;;7.00;99.90;;;;;;5047930;28;20247;-80
2023/04/25 00:58:17;;;;;;;15.07;3.90;;;7.00;99.90;;;;;;5041545;28;20310;-80
2023/04/25 01:00:46;;;;;;;13.27;3.80;;;7.00;99.90;;;;;;5040152;28;20248;-80
2023/04/25 01:03:13;;;;;;;22.27;4.10;;;7.00;99.90;;;;;;5047457;28;20226;-79
2023/04/25 01:05:42;;;;;;;14.93;4.47;;;6.90;99.90;;;;;;5045386;28;20276;-80
2023/04/25 01:08:09;;;;;;;13.90;3.80;;;6.90;99.90;;;;;;5041631;28;20223;-80
2023/04/25 01:10:37;;;;;;;18.70;4.47;;;6.90;99.90;;;;;;5055780;28;20284;-80
2023/04/25 01:13:04;;;;;;;22.27;4.97;;;6.80;99.90;;;;;;5046412;28;20280;-80
2023/04/25 01:15:31;;;;;;;15.13;3.77;;;6.80;99.90;;;;;;5044413;28;20224;-80
2023/04/25 01:18:00;;;;;;;13.87;3.93;;;6.80;99.90;;;;;;5041765;28;20259;-80
2023/04/25 01:20:28;;;;;;;16.77;5.10;;;6.80;99.90;;;;;;5040594;28;20790;-80
2023/04/25 01:22:56;;;;;;;18.17;4.43;;;6.70;99.90;;;;;;5038858;28;20227;-80
2023/04/25 01:25:23;;;;;;;15.60;4.13;;;6.70;99.90;;;;;;5053514;28;20676;-80
2023/04/25 01:27:50;;;;;;;16.43;4.13;;;6.70;99.90;;;;;;5047623;28;20333;-80
2023/04/25 01:30:17;;;;;;;17.43;4.37;;;6.70;99.90;;;;;;5039359;28;20226;-80
2023/04/25 01:32:44;;;;;;;17.03;4.27;;;6.70;99.90;;;;;;5037190;28;20226;-80
2023/04/25 01:35:12;;;;;;;16.33;4.10;;;6.70;99.90;;;;;;5050629;28;20228;-80
2023/04/25 01:37:39;;;;;;;13.50;4.07;;;6.60;99.90;;;;;;5039386;28;20233;-80
2023/04/25 01:40:09;;;;;;;16.47;4.43;;;6.60;99.90;;;;;;5043618;28;20218;-80
2023/04/25 01:42:38;;;;;;;18.23;4.47;;;6.60;99.90;;;;;;5043612;28;20318;-80
2023/04/25 01:45:06;;;;;;;24.27;5.13;;;6.60;99.90;;;;;;5043678;28;20277;-80
2023/04/25 01:47:34;;;;;;;13.07;4.33;;;6.60;99.90;;;;;;5039660;28;20301;-80
2023/04/25 01:50:01;;;;;;;22.00;5.10;;;6.60;99.90;;;;;;5043085;28;20229;-82
2023/04/25 01:52:29;;;;;;;17.63;4.87;;;6.60;99.90;;;;;;5039875;28;20308;-81
2023/04/25 01:54:58;;;;;;;18.63;5.30;;;6.50;99.90;;;;;;5042108;28;20701;-80
2023/04/25 01:57:27;;;;;;;18.73;4.50;;;6.40;99.90;;;;;;5033400;28;20231;-80
2023/04/25 01:59:59;;;;;;;18.47;4.87;;;6.40;99.90;;;;;;5045105;28;20225;-79
2023/04/25 02:02:41;;;;;;;26.20;5.30;;;6.40;99.90;;;;;;5052178;28;20734;-80
2023/04/25 02:05:28;;;;;;;19.77;5.27;;;6.40;99.90;;;;;;5046825;28;20221;-80
2023/04/25 02:07:55;;;;;;;21.33;5.00;;;6.40;99.90;;;;;;5038218;28;20795;-80
2023/04/25 02:10:25;;;;;;;20.57;5.30;;;6.30;99.90;;;;;;5046781;28;20318;-80
2023/04/25 02:13:13;;;;;;;20.27;4.90;;;6.30;99.90;;;;;;5023241;28;20222;-81
2023/04/25 02:15:58;;;;;;;19.37;4.50;;;6.30;99.90;;;;;;5035673;28;20308;-80
2023/04/25 02:18:26;;;;;;;18.07;4.27;;;6.30;99.90;;;;;;5043342;28;20243;-80
2023/04/25 02:20:52;;;;;;;17.93;4.70;;;6.30;99.90;;;;;;5046732;28;20228;-79
2023/04/25 02:23:20;;;;;;;20.03;5.37;;;6.20;99.90;;;;;;5057281;28;20236;-79
2023/04/25 02:25:47;;;;;;;21.77;5.13;;;6.20;99.90;;;;;;5041415;28;20232;-79
2023/04/25 02:28:15;;;;;;;16.77;4.20;;;6.20;99.90;;;;;;5053005;28;20211;-80
2023/04/25 02:30:42;;;;;;;19.20;4.57;;;6.20;99.90;;;;;;5045331;28;20257;-80
2023/04/25 02:33:09;;;;;;;15.57;4.23;;;6.10;99.90;;;;;;5035735;28;20317;-79
2023/04/25 02:35:36;;;;;;;18.13;4.23;;;6.10;99.90;;;;;;5041054;28;20249;-80
2023/04/25 02:38:03;;;;;;;18.07;4.67;;;6.00;99.90;;;;;;5038984;28;20228;-80
2023/04/25 02:40:30;;;;;;;12.13;3.93;;;6.00;99.90;;;;;;5035867;28;20225;-79
2023/04/25 02:42:57;;;;;;;16.67;4.20;;;6.00;99.90;;;;;;5038891;28;20639;-79
2023/04/25 02:45:28;;;;;;;21.83;4.37;;;6.00;99.90;;;;;;5041511;28;20347;-79
2023/04/25 02:47:56;;;;;;;22.30;4.53;;;5.90;99.90;;;;;;5041783;28;20222;-77
2023/04/25 02:50:23;;;;;;;14.10;4.03;;;5.90;99.90;;;;;;5044728;28;20256;-76
2023/04/25 02:52:49;;;;;;;16.00;4.37;;;5.90;99.90;;;;;;5040856;28;20285;-77
2023/04/25 02:55:22;;;;;;;20.43;4.47;;;5.90;99.90;;;;;;5043221;28;20270;-77
2023/04/25 02:57:48;;;;;;;20.23;4.30;;;5.90;99.90;;;;;;5036253;28;20218;-78
2023/04/25 03:00:24;;;;;;;16.90;3.70;;;5.90;99.90;;;;;;5034263;28;20234;-77
2023/04/25 03:02:52;;;;;;;16.53;4.27;;;5.80;99.90;;;;;;5030386;28;20320;-78
2023/04/25 03:05:19;;;;;;;16.20;4.17;;;5.80;99.90;;;;;;5050997;28;20245;-78
2023/04/25 03:07:46;;;;;;;20.23;5.30;;;5.80;99.90;;;;;;5033510;28;20931;-78
2023/04/25 03:10:13;;;;;;;18.63;4.87;;;5.80;99.90;;;;;;5040156;28;20227;-77
2023/04/25 03:12:41;;;;;;;20.60;4.67;;;5.80;99.90;;;;;;5046527;28;20288;-79
2023/04/25 03:15:08;;;;;;;13.77;3.97;;;5.80;99.90;;;;;;5035264;28;20230;-79
2023/04/25 03:17:35;;;;;;;18.90;5.20;;;5.80;99.90;;;;;;5047135;28;20245;-79
2023/04/25 03:20:05;;;;;;;15.20;3.73;;;5.80;99.90;;;;;;5046321;28;20225;-78
2023/04/25 03:22:32;;;;;;;18.37;4.20;;;5.70;99.90;;;;;;5034804;28;20238;-78
2023/04/25 03:24:59;;;;;;;13.07;4.00;;;5.70;99.90;;;;;;5042082;28;20235;-79
2023/04/25 03:27:26;;;;;;;13.40;3.67;;;5.70;99.90;;;;;;5037156;28;20232;-78
2023/04/25 03:29:53;;;;;;;17.27;3.67;;;5.60;99.90;;;;;;5038757;28;20246;-78
2023/04/25 03:32:20;;;;;;;18.57;4.17;;;5.60;99.90;;;;;;5041967;28;20269;-78
2023/04/25 03:34:47;;;;;;;18.13;4.60;;;5.50;99.90;;;;;;5040657;28;20234;-78
2023/04/25 03:37:15;;;;;;;15.77;4.07;;;5.50;99.90;;;;;;5036953;28;20220;-78
2023/04/25 03:39:42;;;;;;;16.80;4.60;;;5.50;99.90;;;;;;5037191;28;21644;-78
2023/04/25 03:42:09;;;;;;;13.97;4.10;;;5.40;99.90;;;;;;5039717;28;20771;-79
2023/04/25 03:44:35;;;;;;;15.00;3.90;;;5.30;99.90;;;;;;5043854;28;20242;-78
2023/04/25 03:47:03;;;;;;;14.23;3.70;;;5.20;99.90;;;;;;5041055;28;20228;-79
2023/04/25 03:49:30;;;;;;;24.37;5.07;;;5.20;99.90;;;;;;5034204;28;20311;-79
2023/04/25 03:52:01;;;;;;;14.37;4.40;;;5.10;99.90;;;;;;5034842;28;20215;-80
2023/04/25 03:54:31;;;;;;;13.57;3.37;;;5.00;99.90;;;;;;5032369;28;20262;-79
2023/04/25 03:57:07;;;;;;;15.07;3.37;;;5.00;99.90;;;;;;5041964;28;20229;-79
2023/04/25 03:59:37;;;;;;;13.50;3.60;;;4.90;99.90;;;;;;5063086;28;20225;-80
2023/04/25 04:02:04;;;;;;;16.13;3.20;;;4.90;99.90;;;;;;5044064;28;20234;-79
2023/04/25 04:04:33;;;;;;;18.33;3.97;;;4.80;99.90;;;;;;5038123;28;20249;-78
2023/04/25 04:07:00;;;;;;;12.70;3.20;;;4.80;99.90;;;;;;5040610;28;20220;-79
2023/04/25 04:09:32;;;;;;;13.87;3.43;;;4.80;99.90;;;;;;5041863;28;20224;-80
2023/04/25 04:12:01;;;;;;;14.63;3.80;;;4.80;99.90;;;;;;5039673;28;20303;-78
2023/04/25 04:14:30;;;;;;;16.23;4.30;;;4.80;99.90;;;;;;5040691;28;20931;-78
2023/04/25 04:16:56;;;;;;;14.00;3.47;;;4.80;99.90;;;;;;5039825;28;20706;-78
2023/04/25 04:19:24;;;;;;;16.30;3.80;;;4.90;99.90;;;;;;5039270;28;20700;-79
2023/04/25 04:21:59;;;;;;;14.53;3.70;;;4.90;99.90;;;;;;5043393;28;20770;-79
2023/04/25 04:24:26;;;;;;;11.77;3.70;;;4.90;99.90;;;;;;5041270;28;20790;-79
2023/04/25 04:26:59;;;;;;;14.07;3.67;;;4.90;99.90;;;;;;5042507;28;20216;-78
2023/04/25 04:29:57;;;;;;;11.57;3.43;;;4.90;99.90;;;;;;4990830;28;20310;-77
2023/04/25 04:32:38;;;;;;;19.07;4.20;;;4.90;99.90;;;;;;5038847;28;20225;-78
2023/04/25 04:35:08;;;;;;;17.03;4.20;;;4.90;99.90;;;;;;5040184;28;20221;-78
2023/04/25 04:37:36;;;;;;;21.93;4.53;;;4.90;99.90;;;;;;5042200;28;20226;-78
2023/04/25 04:40:05;;;;;;;13.30;3.73;;;4.80;99.90;;;;;;5038842;28;20249;-79
2023/04/25 04:42:47;;;;;;;10.50;2.87;;;4.80;99.90;;;;;;5043780;28;20241;-78
2023/04/25 04:45:29;;;;;;;14.80;4.07;;;4.80;99.90;;;;;;5045055;28;20229;-79
2023/04/25 04:48:34;;;;;;;11.93;3.57;;;4.80;99.90;;;;;;5037201;28;20233;-79
2023/04/25 04:51:24;;;;;;;12.03;3.43;;;4.80;99.90;;;;;;5039604;28;20272;-79
2023/04/25 04:54:04;;;;;;;10.83;3.33;;;4.90;99.90;;;;;;5044870;28;20768;-79
2023/04/25 04:56:50;;;;;;;12.53;3.53;;;4.90;99.90;;;;;;5044507;28;20233;-78
2023/04/25 04:59:23;;;;;;;11.17;3.63;;;5.00;99.90;;;;;;5032217;28;20235;-78
2023/04/25 05:02:09;;;;;;;11.03;3.07;;;5.10;99.90;;;;;;5024756;28;20246;-79
2023/04/25 05:04:51;;;;;;;12.43;3.50;;;5.10;99.90;;;;;;5022952;28;20241;-78
2023/04/25 05:07:20;;;;;;;16.30;4.13;;;5.10;99.90;;;;;;5024547;28;20235;-78
2023/04/25 05:10:03;;;;;;;13.70;3.10;;;5.20;99.90;;;;;;5022897;28;20296;-79
2023/04/25 05:13:08;;;;;;;10.83;3.37;;;5.30;99.90;;;;;;5005372;28;20231;-79
2023/04/25 05:16:00;;;;;;;11.90;3.33;;;5.30;99.90;;;;;;5013835;28;20237;-78
2023/04/25 05:18:49;;;;;;;11.77;3.10;;;5.40;99.90;;;;;;5023196;28;20235;-78
2023/04/25 05:21:36;;;;;;;15.10;2.90;;;5.50;99.90;;;;;;5025490;28;20300;-78
2023/04/25 05:24:09;;;;;;;12.63;3.80;;;5.50;99.90;;;;;;5042409;28;20235;-78
2023/04/25 05:26:54;;;;;;;14.93;3.33;;;5.60;99.90;;;;;;5044248;28;20232;-78
2023/04/25 05:29:42;;;;;;;9.97;3.40;;;5.60;99.90;;;;;;5033143;28;20258;-79
2023/04/25 05:32:26;;;;;;;11.17;3.10;;;5.70;99.90;;;;;;5041254;28;20620;-78
2023/04/25 05:34:53;;;;;;;16.07;3.10;;;5.70;99.90;;;;;;5023158;28;20324;-79
2023/04/25 05:37:25;;;;;;;12.07;2.93;;;5.60;99.90;;;;;;5023591;28;20229;-79
2023/04/25 05:40:17;;;;;;;9.20;2.70;;;5.70;99.90;;;;;;5040501;28;20861;-78
2023/04/25 05:42:44;;;;;;;13.07;3.53;;;5.60;99.90;;;;;;5044011;28;20240;-79
2023/04/25 05:45:29;;;;;;;12.97;3.13;;;5.60;99.90;;;;;;5041655;28;20234;-79
2023/04/25 05:48:11;;;;;;;15.60;3.10;;;5.70;99.90;;;;;;5041646;28;20309;-78
2023/04/25 05:50:58;;;;;;;10.40;3.43;;;5.60;99.90;;;;;;5035673;28;20218;-77
2023/04/25 05:53:41;;;;;;;11.97;3.17;;;5.60;99.90;;;;;;5045081;28;20733;-78
2023/04/25 05:56:08;;;;;;;10.10;3.20;;;5.60;99.90;;;;;;5063423;28;20229;-79
2023/04/25 05:58:35;;;;;;;10.57;3.13;;;5.60;99.90;;;;;;5042449;28;20228;-78
2023/04/25 06:01:03;;;;;;;11.53;3.17;;;5.70;99.90;;;;;;5037930;28;20472;-76
2023/04/25 06:03:31;;;;;;;10.93;3.10;;;5.70;99.90;;;;;;5034958;28;20230;-79
2023/04/25 06:05:58;;;;;;;13.97;3.97;;;5.70;99.90;;;;;;5045078;28;20312;-78
2023/04/25 06:08:26;;;;;;;10.90;2.80;;;5.70;99.90;;;;;;5046605;28;20236;-82
2023/04/25 06:10:53;;;;;;;13.27;3.43;;;5.80;99.90;;;;;;5041170;28;20223;-81
2023/04/25 06:13:20;;;;;;;14.83;3.83;;;5.80;99.90;;;;;;5038145;28;20826;-82
2023/04/25 06:15:46;;;;;;;12.83;3.43;;;5.80;99.90;;;;;;5036039;28;20736;-83
2023/04/25 06:18:13;;;;;;;11.07;3.13;;;5.90;99.90;;;;;;5055983;28;20589;-82
2023/04/25 06:20:41;;;;;;;16.27;3.50;;;5.80;99.90;;;;;;5042656;28;20229;-82
2023/04/25 06:23:08;;;;;;;8.30;2.63;;;5.90;99.90;;;;;;5043276;28;20226;-82
2023/04/25 06:25:46;;;;;;;16.63;3.70;;;5.90;99.90;;;;;;5048351;28;20224;-85
2023/04/25 06:28:13;;;;;;;14.53;3.60;;;6.00;99.90;;;;;;5058572;28;20217;-82
2023/04/25 06:30:40;;;;;;;9.43;2.90;;;6.00;99.90;;;;;;5040617;28;20249;-81
2023/04/25 06:33:11;;;;;;;11.93;3.33;;;6.10;99.90;;;;;;5040062;28;20219;-81
2023/04/25 06:35:40;;;;;;;11.93;2.87;;;6.20;99.90;;;;;;5047557;28;20274;-80
2023/04/25 06:38:10;;;;;;;10.77;2.70;;;6.30;99.90;;;;;;5047989;28;20225;-81
2023/04/25 06:40:39;;;;;;;10.83;3.20;;;6.50;99.90;;;;;;5042888;28;20313;-81
2023/04/25 06:43:06;;;;;;;16.67;3.53;;;6.60;99.90;;;;;;5041707;28;20243;-79
2023/04/25 06:45:53;;;;;;;12.50;3.03;;;6.70;99.90;;;;;;5043778;28;20313;-82
2023/04/25 06:48:21;;;;;;;11.60;3.17;;;6.80;99.90;;;;;;5041939;28;20222;-82
2023/04/25 06:50:50;;;;;;;9.93;2.90;;;7.00;99.90;;;;;;5058319;28;20310;-83
2023/04/25 06:53:16;;;;;;;12.83;3.23;;;7.00;99.90;;;;;;5043735;28;20946;-82
2023/04/25 06:55:46;;;;;;;9.57;2.77;;;7.10;99.90;;;;;;5043383;28;20233;-83
2023/04/25 06:58:17;;;;;;;11.50;3.43;;;7.20;99.90;;;;;;5036610;28;20650;-81
2023/04/25 07:01:06;;;;;;;10.07;3.03;;;7.20;99.90;;;;;;5043811;28;20229;-83
2023/04/25 07:03:37;;;;;;;10.50;2.80;;;7.20;99.90;;;;;;5060037;28;20237;-83
2023/04/25 07:06:09;;;;;;;8.03;3.03;;;7.20;99.90;;;;;;5041142;28;20231;-83
2023/04/25 07:08:36;;;;;;;10.57;2.77;;;7.20;99.90;;;;;;5042796;28;20228;-81
2023/04/25 07:11:02;;;;;;;15.10;3.13;;;7.30;99.90;;;;;;5036649;28;20239;-82
2023/04/25 07:13:29;;;;;;;10.60;2.87;;;7.30;99.90;;;;;;5041612;28;20234;-83
2023/04/25 07:15:56;;;;;;;11.30;3.13;;;7.30;99.90;;;;;;5044105;28;20225;-82
2023/04/25 07:18:23;;;;;;;10.57;2.87;;;7.30;99.90;;;;;;5039860;28;21102;-82
2023/04/25 07:20:51;;;;;;;12.10;2.90;;;7.40;99.90;;;;;;5038483;28;20215;-81
2023/04/25 07:23:20;;;;;;;10.10;2.80;;;7.50;99.90;;;;;;5047786;28;20280;-81
2023/04/25 07:25:47;;;;;;;11.30;2.43;;;7.50;99.90;;;;;;5050196;28;20291;-81
2023/04/25 07:28:18;;;;;;;11.37;2.57;;;7.50;99.90;;;;;;5043458;28;20295;-83
2023/04/25 07:30:45;;;;;;;9.13;2.53;;;7.50;99.90;;;;;;5053553;28;20778;-82
2023/04/25 07:33:12;;;;;;;10.50;2.70;;;7.50;99.90;;;;;;5046868;28;20222;-82
2023/04/25 07:35:38;;;;;;;11.73;2.63;;;7.50;99.90;;;;;;5040848;28;20237;-83
2023/04/25 07:38:06;;;;;;;8.33;2.50;;;7.40;99.90;;;;;;5038069;28;20250;-81
2023/04/25 07:40:35;;;;;;;5.80;1.90;;;7.40;99.90;;;;;;5047004;28;20224;-81
2023/04/25 07:43:06;;;;;;;31.13;5.80;;;7.30;99.90;;;;;;5040341;28;20656;-81
2023/04/25 07:45:39;;;;;;;8.03;2.53;;;7.10;99.90;;;;;;5060922;28;20227;-81
2023/04/25 07:48:06;;;;;;;7.30;2.30;;;7.10;99.90;;;;;;5040845;28;20241;-81
2023/04/25 07:50:36;;;;;;;9.20;2.43;;;7.00;99.90;;;;;;5046121;28;20225;-81
2023/04/25 07:53:03;;;;;;;26.63;5.20;;;7.00;99.90;;;;;;5064720;28;20230;-83
2023/04/25 07:55:40;;;;;;;28.50;4.63;;;7.10;99.90;;;;;;5041209;28;20919;-82
2023/04/25 07:58:12;;;;;;;10.13;2.43;;;7.10;99.90;;;;;;5060286;28;20235;-81
2023/04/25 08:00:42;;;;;;;8.77;2.80;;;7.30;99.90;;;;;;5052044;28;20229;-83
2023/04/25 08:03:27;;;;;;;11.97;3.13;;;7.30;99.90;;;;;;5044708;28;20289;-81
2023/04/25 08:05:55;;;;;;;9.27;2.50;;;7.50;99.90;;;;;;5040369;28;20227;-82
2023/04/25 08:08:22;;;;;;;8.43;2.50;;;7.70;99.90;;;;;;5037444;28;20239;-81
2023/04/25 08:10:50;;;;;;;10.10;2.43;;;7.90;99.90;;;;;;5037698;28;20223;-82
2023/04/25 08:13:18;;;;;;;11.03;2.70;;;8.20;99.90;;;;;;5046397;28;21021;-83
2023/04/25 08:15:45;;;;;;;10.37;2.30;;;8.60;99.90;;;;;;5048345;28;20216;-81
2023/04/25 08:18:12;;;;;;;8.07;2.37;;;9.00;99.90;;;;;;5037353;28;20220;-84
2023/04/25 08:20:40;;;;;;;7.10;2.37;;;9.30;99.90;;;;;;5044681;28;20251;-82
2023/04/25 08:23:08;;;;;;;11.47;2.73;;;9.50;99.90;;;;;;5046315;28;20238;-83
2023/04/25 08:25:48;;;;;;;11.30;2.57;;;9.60;99.90;;;;;;5050427;28;20212;-84
2023/04/25 08:28:18;;;;;;;9.47;2.57;;;9.50;99.90;;;;;;5049823;28;20314;-82
2023/04/25 08:30:45;;;;;;;10.23;2.47;;;9.60;99.90;;;;;;5040593;28;20220;-82
2023/04/25 08:33:14;;;;;;;6.63;1.73;;;9.50;99.90;;;;;;5045405;28;20761;-81
2023/04/25 08:35:59;;;;;;;5.17;1.30;;;9.20;99.90;;;;;;5043768;28;20276;-82
2023/04/25 08:38:27;;;;;;;5.90;1.60;;;9.00;99.90;;;;;;5050164;28;20572;-82
2023/04/25 08:40:55;;;;;;;3.33;1.20;;;8.60;99.90;;;;;;5058102;28;20284;-82
2023/04/25 08:43:25;;;;;;;5.03;1.20;;;8.20;99.90;;;;;;5050728;28;20398;-83
2023/04/25 08:45:54;;;;;;;7.13;2.00;;;7.90;99.90;;;;;;5048281;28;20313;-81
2023/04/25 08:48:33;;;;;;;7.97;1.70;;;7.70;99.90;;;;;;5046095;28;20909;-82
2023/04/25 08:51:02;;;;;;;7.80;1.80;;;7.80;99.90;;;;;;5046892;28;20215;-81
2023/04/25 08:53:31;;;;;;;7.90;2.10;;;7.90;99.90;;;;;;5049164;28;20227;-82
2023/04/25 08:56:01;;;;;;;12.67;2.23;;;8.20;99.90;;;;;;5061677;28;20231;-83
2023/04/25 08:58:30;;;;;;;8.20;2.00;;;8.40;99.90;;;;;;5037014;28;20701;-83
2023/04/25 09:00:57;;;;;;;9.57;2.83;;;8.50;99.90;;;;;;5041591;28;20254;-82
2023/04/25 09:03:27;;;;;;;7.93;2.20;;;8.50;99.90;;;;;;5043101;28;20254;-82
2023/04/25 09:05:56;;;;;;;9.43;2.30;;;8.40;99.90;;;;;;5042795;28;20232;-81
2023/04/25 09:08:22;;;;;;;9.67;2.10;;;8.30;99.90;;;;;;5035581;28;20272;-83
2023/04/25 09:10:49;;;;;;;9.20;2.43;;;8.20;99.90;;;;;;5044116;28;20219;-82
2023/04/25 09:13:25;;;;;;;11.53;2.37;;;8.10;99.90;;;;;;5044818;28;20214;-82
2023/04/25 09:16:14;;;;;;;8.10;2.60;;;8.00;99.90;;;;;;5046012;28;20217;-84
2023/04/25 09:19:01;;;;;;;9.13;2.60;;;8.20;99.90;;;;;;5021891;28;20291;-81
2023/04/25 09:21:30;;;;;;;9.83;2.13;;;8.50;99.90;;;;;;5044815;28;20220;-81
2023/04/25 09:23:59;;;;;;;9.17;2.33;;;8.80;99.90;;;;;;5045948;28;20246;-82
2023/04/25 09:26:27;;;;;;;10.77;2.30;;;9.10;99.90;;;;;;5047621;28;20231;-82
2023/04/25 09:29:06;;;;;;;7.20;2.10;;;9.30;99.90;;;;;;5041716;28;20228;-82
2023/04/25 09:31:35;;;;;;;7.00;1.70;;;9.40;99.90;;;;;;5041263;28;20233;-81
2023/04/25 09:34:04;;;;;;;5.00;1.87;;;9.40;99.90;;;;;;5044603;28;20225;-81
2023/04/25 09:36:41;;;;;;;9.13;2.63;;;9.40;99.90;;;;;;5057516;28;20218;-81
2023/04/25 09:39:29;;;;;;;7.33;2.00;;;9.30;99.90;;;;;;5041240;28;20226;-81
2023/04/25 09:42:04;;;;;;;8.40;1.73;;;9.30;99.90;;;;;;5042881;28;20688;-81
2023/04/25 09:44:31;;;;;;;6.57;1.90;;;9.40;99.90;;;;;;5042624;28;20828;-82
2023/04/25 09:46:59;;;;;;;9.20;2.20;;;9.60;99.90;;;;;;5050177;28;20231;-82
2023/04/25 09:49:29;;;;;;;8.07;2.00;;;9.80;99.90;;;;;;5042682;28;20883;-82
2023/04/25 09:52:09;;;;;;;9.67;2.00;;;10.00;99.90;;;;;;5037701;28;20215;-81
2023/04/25 09:54:47;;;;;;;4.80;1.60;;;10.20;99.90;;;;;;5032890;28;20223;-82
2023/04/25 09:57:20;;;;;;;8.83;1.80;;;10.20;99.90;;;;;;5040713;28;20282;-82
2023/04/25 09:59:48;;;;;;;6.43;1.93;;;10.20;99.90;;;;;;5045667;28;20217;-84
2023/04/25 10:02:20;;;;;;;6.97;1.37;;;9.90;99.90;;;;;;5045952;28;20424;-83
2023/04/25 10:04:51;;;;;;;4.10;1.20;;;9.70;99.90;;;;;;5043683;28;20237;-84
2023/04/25 10:07:25;;;;;;;6.77;1.87;;;9.40;99.90;;;;;;5026106;28;20223;-82
2023/04/25 10:09:59;;;;;;;8.03;1.77;;;9.20;99.90;;;;;;5040517;28;20227;-83
2023/04/25 10:12:26;;;;;;;6.40;1.73;;;9.00;99.90;;;;;;5041853;28;20229;-83
2023/04/25 10:14:55;;;;;;;7.30;1.83;;;8.90;99.90;;;;;;5043591;28;20235;-82
2023/04/25 10:17:24;;;;;;;10.40;1.97;;;9.00;99.90;;;;;;5047073;28;20223;-83
2023/04/25 10:19:53;;;;;;;7.73;2.13;;;9.20;99.90;;;;;;5039832;28;20318;-82
2023/04/25 10:22:26;;;;;;;9.70;2.30;;;9.40;99.90;;;;;;5037890;28;20269;-82
2023/04/25 10:24:53;;;;;;;3.80;1.80;;;9.70;99.90;;;;;;5033350;28;21123;-82
2023/04/25 10:27:20;;;;;;;5.37;2.10;;;10.00;99.90;;;;;;5029822;28;20229;-82
2023/04/25 10:30:02;;;;;;;8.57;2.13;;;10.20;99.90;;;;;;5037461;28;20238;-81
2023/04/25 10:32:31;;;;;;;6.53;1.60;;;10.40;99.90;;;;;;5025930;28;20232;-82
2023/04/25 10:34:58;;;;;;;5.23;1.60;;;10.70;99.90;;;;;;5034558;28;20234;-81
2023/04/25 10:37:25;;;;;;;6.33;1.93;;;10.80;99.90;;;;;;5038911;28;20227;-83
2023/04/25 10:39:53;;;;;;;4.53;1.80;;;11.00;99.90;;;;;;5047376;28;20216;-81
2023/04/25 10:42:19;;;;;;;7.43;1.50;;;11.00;99.70;;;;;;5039956;28;20270;-82
2023/04/25 10:45:03;;;;;;;6.70;1.57;;;11.20;99.90;;;;;;5048305;28;20234;-82
2023/04/25 10:47:37;;;;;;;5.37;1.87;;;11.20;98.60;;;;;;5040574;28;20226;-81
2023/04/25 10:50:06;;;;;;;6.10;1.97;;;11.30;99.00;;;;;;5043233;28;20214;-82
2023/04/25 10:52:34;;;;;;;6.73;1.80;;;11.50;99.50;;;;;;5042582;28;20897;-83
2023/04/25 10:55:04;;;;;;;6.93;1.77;;;11.80;99.90;;;;;;5045183;28;20245;-81
2023/04/25 10:57:33;;;;;;;8.07;2.07;;;12.00;99.80;;;;;;5044344;28;20263;-83
2023/04/25 11:00:09;;;;;;;6.03;1.73;;;12.30;97.80;;;;;;5043433;28;20230;-82
2023/04/25 11:02:42;;;;;;;6.93;2.00;;;12.50;98.20;;;;;;5040678;28;20745;-81
2023/04/25 11:05:10;;;;;;;6.13;1.70;;;12.80;97.50;;;;;;5029156;28;20260;-81
2023/04/25 11:07:40;;;;;;;4.63;1.50;;;13.00;96.60;;;;;;5038232;28;20250;-81
2023/04/25 11:10:07;;;;;;;11.50;2.20;;;13.10;95.70;;;;;;5042820;28;20331;-81
2023/04/25 11:12:34;;;;;;;6.13;1.70;;;13.20;95.60;;;;;;5044370;28;20730;-83
2023/04/25 11:15:02;;;;;;;6.93;1.80;;;13.10;94.00;;;;;;5046826;28;20273;-81
2023/04/25 11:20:21;;;;;;;5.93;1.77;;;12.60;94.00;;;;;;5008411;28;20766;-81
2023/04/25 11:22:49;;;;;;;8.00;1.80;;;12.30;94.40;;;;;;5029684;28;20220;-80
2023/04/25 11:25:16;;;;;;;5.77;1.67;;;12.10;94.30;;;;;;5012320;28;20537;-79
2023/04/25 11:27:53;;;;;;;5.23;1.50;;;11.90;95.00;;;;;;5003323;28;20569;-81
2023/04/25 11:30:21;;;;;;;7.60;2.77;;;11.60;95.30;;;;;;5008733;28;20219;-79
2023/04/25 11:32:48;;;;;;;4.77;1.37;;;11.30;96.00;;;;;;5004660;28;20316;-80
2023/04/25 11:35:16;;;;;;;7.03;1.50;;;10.90;96.40;;;;;;5008506;28;20501;-80
2023/04/25 11:37:45;;;;;;;8.33;2.10;;;10.50;97.30;;;;;;5020186;28;20777;-81
2023/04/25 11:40:12;;;;;;;5.00;1.47;;;10.20;97.90;;;;;;5010971;28;20263;-80
2023/04/25 11:42:39;;;;;;;7.40;1.60;;;9.90;98.50;;;;;;5009452;28;20221;-80
2023/04/25 11:45:07;;;;;;;5.67;1.70;;;9.70;99.90;;;;;;5007478;28;20779;-80
2023/04/25 11:47:34;;;;;;;6.17;1.30;;;9.70;99.90;;;;;;5011656;28;20224;-79
2023/04/25 11:50:02;;;;;;;6.70;1.73;;;9.70;99.60;;;;;;5021233;28;20293;-79
2023/04/25 11:52:39;;;;;;;8.17;1.67;;;9.70;99.40;;;;;;5011765;28;20230;-79
2023/04/25 11:55:09;;;;;;;5.43;1.80;;;9.80;99.50;;;;;;5027319;28;20798;-79
2023/04/25 11:57:36;;;;;;;6.57;1.43;;;9.70;99.10;;;;;;5008909;28;20283;-79
2023/04/25 12:00:12;;;;;;;6.43;1.67;;;9.70;99.20;;;;;;5007470;28;20304;-80
2023/04/25 12:02:42;;;;;;;3.70;1.13;;;9.80;99.80;;;;;;5005745;28;20722;-80
2023/04/25 12:05:10;;;;;;;6.30;1.50;;;9.80;99.90;;;;;;5000399;28;20313;-79
2023/04/25 12:07:37;;;;;;;5.80;1.50;;;10.00;99.70;;;;;;5006338;28;20233;-79
2023/04/25 12:10:10;;;;;;;5.67;1.73;;;10.20;99.40;;;;;;5006898;28;20240;-79
2023/04/25 12:12:38;;;;;;;5.70;1.60;;;10.50;99.40;;;;;;5012005;28;20228;-79
2023/04/25 12:15:15;;;;;;;4.30;1.87;;;10.80;98.40;;;;;;4999283;28;20230;-80
2023/04/25 12:17:42;;;;;;;3.83;1.50;;;11.00;97.40;;;;;;5003189;28;20298;-79
2023/04/25 12:20:13;;;;;;;4.07;1.30;;;11.10;97.50;;;;;;5010620;28;20237;-79
2023/04/25 12:22:44;;;;;;;4.10;1.10;;;11.20;96.40;;;;;;5023591;28;21013;-80
2023/04/25 12:25:13;;;;;;;7.77;1.40;;;11.40;95.50;;;;;;5022004;28;20800;-80
2023/04/25 12:27:41;;;;;;;3.07;1.20;;;11.50;94.50;;;;;;5000502;28;20316;-79
2023/04/25 12:30:10;;;;;;;4.33;1.20;;;11.60;93.90;;;;;;5004741;28;20217;-80
2023/04/25 12:32:37;;;;;;;3.73;1.10;;;11.70;93.10;;;;;;5005457;28;20217;-79
2023/04/25 12:35:05;;;;;;;4.77;1.20;;;11.80;93.30;;;;;;5029447;28;20227;-79
2023/04/25 12:37:31;;;;;;;6.43;1.30;;;11.80;93.10;;;;;;5003318;28;20230;-80
2023/04/25 12:39:58;;;;;;;2.07;1.07;;;12.00;93.50;;;;;;4987928;28;20997;-79
2023/04/25 12:42:26;;;;;;;2.70;1.30;;;12.10;92.40;;;;;;5000402;28;20231;-79
2023/04/25 12:44:53;;;;;;;4.63;1.63;;;12.30;90.90;;;;;;5009258;28;20240;-80
2023/04/25 12:47:19;;;;;;;3.97;1.20;;;12.40;90.70;;;;;;5001547;28;20854;-79
2023/04/25 12:49:46;;;;;;;4.43;1.10;;;12.50;90.10;;;;;;5007926;28;20758;-79
2023/04/25 12:52:13;;;;;;;4.90;1.37;;;12.50;90.20;;;;;;5002967;28;20246;-79
2023/04/25 12:54:40;;;;;;;5.00;1.33;;;12.50;88.80;;;;;;5001789;28;20818;-79
2023/04/25 12:57:06;;;;;;;4.73;1.23;;;12.50;90.60;;;;;;5005840;28;20238;-79
2023/04/25 12:59:34;;;;;;;6.20;1.60;;;12.50;89.50;;;;;;5004500;28;20242;-79
2023/04/25 13:02:01;;;;;;;5.33;1.47;;;12.40;88.00;;;;;;5004329;28;20272;-79
2023/04/25 13:04:28;;;;;;;6.03;1.60;;;12.20;86.90;;;;;;5003337;28;20235;-79
2023/04/25 13:06:54;;;;;;;7.03;1.47;;;12.00;87.70;;;;;;5021645;28;20260;-79
2023/04/25 13:09:21;;;;;;;6.33;2.00;;;11.70;89.10;;;;;;5009935;28;20229;-79
2023/04/25 13:11:48;;;;;;;6.37;1.70;;;11.50;90.00;;;;;;5016915;28;20228;-79